• Join FlightAware (Why Join?)
  • Login
  • US Flag 
12:27PM EDT


 

Airport Tracker/Info


-or-


 

Live Flight TrackerFlight Track Log ✈ N569LM ✈ 21-Apr-2013 ✈ KSAT - MMAN / NTR

Flight Track Log - Related Links

Times and Time Zones

All times are in EDT time to prevent confusion due to time zone crossing. See the N569LM flight status page for this flight to view local times or setup timezone preferences in your user account.

Time Position Orientation Groundspeed Altitude Reporting Facility
EDT Latitude Longitude Course Direction KTS MPH feet Rate Location/Type
05:45PM 29.5294 -98.4678 131° Southeast 145 167 1,400  Level Houston Center
05:46PM 29.4983 -98.4261 131° Southeast 196 226 3,700 2,700 Climbing Houston Center
05:47PM 29.4881 -98.4122 130° Southeast 187 215 4,600 2,040 Climbing Houston Center
05:48PM 29.4344 -98.3975 167° South 230 265 6,400 1,980 Climbing Houston Center
05:49PM 29.3742 -98.4519 218° Southwest 254 292 8,700 2,040 Climbing Houston Center
05:50PM 29.3139 -98.5031 216° Southwest 267 307 10,700 1,860 Climbing Houston Center
05:51PM 29.2414 -98.5561 213° Southwest 285 328 12,600 1,620 Climbing Houston Center
05:52PM 29.1683 -98.6044 210° Southwest 302 348 14,100 1,440 Climbing Houston Center
05:53PM 29.0908 -98.6461 205° Southwest 309 356 15,600 1,500 Climbing Houston Center
05:54PM 29.0031 -98.6900 204° Southwest 321 369 17,200 1,500 Climbing Houston Center
05:55PM 28.9192 -98.7294 202° Southwest 325 374 18,700 1,440 Climbing Houston Center
05:56PM 28.8278 -98.7694 201° Southwest 328 377 20,200 1,260 Climbing Houston Center
05:57PM 28.7442 -98.8139 205° Southwest 332 382 21,400 1,140 Climbing Houston Center
05:58PM 28.6608 -98.8611 206° Southwest 342 394 22,600 960 Climbing Houston Center
05:59PM 28.5814 -98.9156 211° Southwest 336 387 23,500 900 Climbing Houston Center
06:00PM 28.5019 -98.9744 213° Southwest 340 391 24,500 840 Climbing Houston Center
06:01PM 28.4142 -99.0206 205° Southwest 348 400 25,300 720 Climbing Houston Center
06:02PM 28.3092 -99.0800 206° Southwest 352 405 26,000 300 Climbing Houston Center
06:03PM 28.2172 -99.1314 206° Southwest 365 420 26,000  Level Houston Center
06:04PM 28.1233 -99.1839 206° Southwest 375 432 26,000  Level Houston Center
06:05PM 28.0289 -99.2369 206° Southwest 379 436 26,000  Level Houston Center
06:06PM 27.9342 -99.2894 206° Southwest 380 437 26,000  Level Houston Center
06:07PM 27.8206 -99.3533 206° Southwest 382 440 26,000  Level Houston Center
06:08PM 27.7253 -99.4069 206° Southwest 386 444 26,000  Level Houston Center
06:09PM 27.6297 -99.4594 206° Southwest 384 442 26,000  Level Houston Center
06:10PM 27.5347 -99.5125 206° Southwest 383 441 26,000  Level Houston Center
06:11PM 27.4394 -99.5650 206° Southwest 383 441 26,000  Level Houston Center
06:13PM 27.3421 -99.5903 196° South  Level FlightAware Approximate
06:20PM 26.7746 -99.7748 196° South  Level FlightAware Approximate
06:21PM 26.6934 -99.8009 196° South  Level FlightAware Approximate
06:22PM 26.6123 -99.8269 196° South  Level FlightAware Approximate
06:23PM 26.5311 -99.8528 196° South  Level FlightAware Approximate
06:24PM 26.4500 -99.8788 196° South  Level FlightAware Approximate
06:25PM 26.3687 -99.9044 195° South  Level FlightAware Approximate
06:26PM 26.2872 -99.9288 195° South  Level FlightAware Approximate
06:27PM 26.2058 -99.9536 197° South  Level FlightAware Approximate
06:28PM 26.1249 -99.9806 197° South  Level FlightAware Approximate
06:29PM 26.0441 -100.0076 197° South  Level FlightAware Approximate
06:30PM 25.9628 -100.0329 195° South  Level FlightAware Approximate
06:31PM 25.8813 -100.0573 195° South  Level FlightAware Approximate
06:32PM 25.8018 -100.0883 197° South  Level FlightAware Approximate
06:33PM 25.7972 -100.1407 310° West  Level FlightAware Approximate
06:34PM 25.8466 -100.2166 304° West  Level FlightAware Approximate
06:35PM 25.8656 -100.2372 304° West  Level Estimated
06:36PM 25.8656 -100.2372 304° West  Level Estimated
06:37PM 25.8656 -100.2372 304° West  Level Estimated
06:38PM 25.8656 -100.2372 304° West  Level Estimated
06:39PM 25.8656 -100.2372 304° West  Level Estimated
06:40PM 25.8656 -100.2372 304° West  Level Estimated
06:41PM 25.8656 -100.2372 304° West  Level Estimated
06:42PM 25.8656 -100.2372 304° West  Level Estimated
06:43PM 25.8656 -100.2372 304° West  Level Estimated
06:44PM 25.8656 -100.2372 304° West  Level Estimated
06:45PM 25.8656 -100.2372 304° West  Level Estimated
06:46PM 25.8656 -100.2372 304° West  Level Estimated
06:47PM 25.8656 -100.2372 304° West  Level Estimated
06:48PM 25.8656 -100.2372 304° West  Level Estimated
06:49PM 25.8656 -100.2372 304° West  Level Estimated
06:50PM 25.8656 -100.2372 304° West  Level Estimated
06:51PM 25.8656 -100.2372 304° West  Level Estimated